Time,TemperatureF,DewpointF,PressureIn,WindDirection,WindDirectionDegrees,WindSpeedMPH,WindSpeedGustMPH,Humidity,HourlyPrecipIn,Conditions,Clouds,dailyrainin,SoftwareType,DateUTC
2013-05-13 00:01:00,47.0,39.5,29.72,South,190,0.0,0.0,75,0.00,,---,0.00,VWS V13.01,2013-05-13 04:01:00,
2013-05-13 00:06:00,47.0,40.2,29.73,South,190,0.0,0.0,77,0.00,,---,0.00,VWS V13.01,2013-05-13 04:06:00,
2013-05-13 00:11:00,46.9,39.4,29.73,South,190,0.0,1.0,75,0.00,,---,0.00,VWS V13.01,2013-05-13 04:11:00,
2013-05-13 00:16:00,46.7,39.2,29.73,South,190,0.0,3.0,75,0.00,,---,0.00,VWS V13.01,2013-05-13 04:16:00,
2013-05-13 00:21:00,46.4,38.9,29.73,SSW,192,0.0,3.0,75,0.00,,---,0.00,VWS V13.01,2013-05-13 04:21:00,
2013-05-13 00:26:00,46.1,39.0,29.73,SSW,192,0.0,0.0,76,0.00,,---,0.00,VWS V13.01,2013-05-13 04:26:00,
2013-05-13 00:31:00,45.8,38.7,29.74,SSW,192,0.0,1.0,76,0.00,,---,0.00,VWS V13.01,2013-05-13 04:31:00,
2013-05-13 00:36:00,45.6,38.2,29.74,South,191,0.0,1.0,75,0.00,,---,0.00,VWS V13.01,2013-05-13 04:36:00,
2013-05-13 00:41:00,45.4,38.0,29.74,SSW,192,0.0,1.0,75,0.00,,---,0.00,VWS V13.01,2013-05-13 04:41:00,
2013-05-13 00:46:00,45.3,37.5,29.74,SSW,192,1.0,2.0,74,0.00,,---,0.00,VWS V13.01,2013-05-13 04:46:00,
2013-05-13 00:51:00,45.3,37.2,29.75,SSW,198,0.0,2.0,73,0.00,,---,0.00,VWS V13.01,2013-05-13 04:51:00,
2013-05-13 00:56:00,45.6,35.7,29.75,South,171,0.0,1.0,68,0.00,,---,0.00,VWS V13.01,2013-05-13 04:56:00,
2013-05-13 01:01:00,46.0,34.5,29.75,West,267,0.0,3.0,64,0.00,,---,0.00,VWS V13.01,2013-05-13 05:01:00,
2013-05-13 01:06:00,46.3,34.8,29.75,SSW,211,0.0,5.0,64,0.00,,---,0.00,VWS V13.01,2013-05-13 05:06:00,
2013-05-13 01:11:00,46.3,34.0,29.75,SE,140,0.0,5.0,62,0.00,,---,0.00,VWS V13.01,2013-05-13 05:11:00,
2013-05-13 01:16:00,46.2,34.7,29.75,SSE,148,0.0,5.0,64,0.00,,---,0.00,VWS V13.01,2013-05-13 05:16:00,
2013-05-13 01:21:00,46.0,34.1,29.75,SSE,151,0.0,5.0,63,0.00,,---,0.00,VWS V13.01,2013-05-13 05:21:00,
2013-05-13 01:26:00,45.8,34.7,29.75,SSE,151,0.0,1.0,65,0.00,,---,0.00,VWS V13.01,2013-05-13 05:26:00,
2013-05-13 01:31:00,45.2,34.5,29.75,SSE,151,0.0,1.0,66,0.00,,---,0.00,VWS V13.01,2013-05-13 05:31:00,
2013-05-13 01:36:00,44.9,35.0,29.75,SSE,150,0.0,1.0,68,0.00,,---,0.00,VWS V13.01,2013-05-13 05:36:00,
2013-05-13 01:41:00,44.5,33.9,29.75,SSE,151,0.0,3.0,66,0.00,,---,0.00,VWS V13.01,2013-05-13 05:41:00,
2013-05-13 01:46:00,44.3,32.9,29.76,SSE,168,0.0,4.0,64,0.00,,---,0.00,VWS V13.01,2013-05-13 05:46:00,
2013-05-13 01:51:00,44.3,33.3,29.76,SSE,148,2.0,4.0,65,0.00,,---,0.00,VWS V13.01,2013-05-13 05:51:00,
2013-05-13 01:56:00,44.9,31.9,29.76,SW,222,3.0,3.0,60,0.00,,---,0.00,VWS V13.01,2013-05-13 05:56:00,
2013-05-13 02:01:00,45.0,32.8,29.76,South,173,0.0,3.0,62,0.00,,---,0.00,VWS V13.01,2013-05-13 06:01:00,
2013-05-13 02:06:00,44.7,32.5,29.76,SSE,148,2.0,3.0,62,0.00,,---,0.00,VWS V13.01,2013-05-13 06:06:00,
2013-05-13 02:11:00,44.6,33.2,29.76,SSW,203,0.0,4.0,64,0.00,,---,0.00,VWS V13.01,2013-05-13 06:11:00,
2013-05-13 02:16:00,44.6,32.8,29.76,SE,141,0.0,4.0,63,0.00,,---,0.00,VWS V13.01,2013-05-13 06:16:00,
2013-05-13 02:21:00,44.2,33.6,29.76,SE,141,0.0,4.0,66,0.00,,---,0.00,VWS V13.01,2013-05-13 06:21:00,
2013-05-13 02:26:00,43.8,33.2,29.76,SE,141,0.0,0.0,66,0.00,,---,0.00,VWS V13.01,2013-05-13 06:26:00,
2013-05-13 02:31:00,43.5,32.5,29.77,SE,141,0.0,0.0,65,0.00,,---,0.00,VWS V13.01,2013-05-13 06:31:00,
2013-05-13 02:36:00,43.3,33.1,29.77,SE,141,0.0,1.0,67,0.00,,---,0.00,VWS V13.01,2013-05-13 06:36:00,
2013-05-13 02:41:00,43.0,32.8,29.76,SE,141,0.0,1.0,67,0.00,,---,0.00,VWS V13.01,2013-05-13 06:41:00,
2013-05-13 02:46:00,42.7,32.9,29.77,SE,141,0.0,1.0,68,0.00,,---,0.00,VWS V13.01,2013-05-13 06:46:00,
2013-05-13 02:51:00,42.5,32.7,29.77,SE,141,0.0,1.0,68,0.00,,---,0.00,VWS V13.01,2013-05-13 06:51:00,
2013-05-13 02:56:00,42.4,33.3,29.77,SE,141,1.0,1.0,70,0.00,,---,0.00,VWS V13.01,2013-05-13 06:56:00,
2013-05-13 03:01:00,42.1,32.3,29.77,SE,141,0.0,1.0,68,0.00,,---,0.00,VWS V13.01,2013-05-13 07:01:00,
2013-05-13 03:06:00,42.0,32.9,29.77,SE,141,0.0,1.0,70,0.00,,---,0.00,VWS V13.01,2013-05-13 07:06:00,
2013-05-13 03:11:00,41.9,33.2,29.77,SE,141,0.0,1.0,71,0.00,,---,0.00,VWS V13.01,2013-05-13 07:11:00,
2013-05-13 03:16:00,41.7,32.7,29.77,SE,141,0.0,1.0,70,0.00,,---,0.00,VWS V13.01,2013-05-13 07:16:00,
2013-05-13 03:21:00,41.5,32.5,29.77,SE,141,0.0,1.0,70,0.00,,---,0.00,VWS V13.01,2013-05-13 07:21:00,
2013-05-13 03:26:00,41.4,32.4,29.77,SE,141,0.0,0.0,70,0.00,,---,0.00,VWS V13.01,2013-05-13 07:26:00,
2013-05-13 03:31:00,41.5,31.7,29.77,SSE,150,0.0,3.0,68,0.00,,---,0.00,VWS V13.01,2013-05-13 07:31:00,
2013-05-13 03:36:00,41.7,32.3,29.78,SSE,149,0.0,3.0,69,0.00,,---,0.00,VWS V13.01,2013-05-13 07:36:00,
2013-05-13 03:41:00,41.8,32.0,29.77,ESE,119,1.0,3.0,68,0.00,,---,0.00,VWS V13.01,2013-05-13 07:41:00,
2013-05-13 03:46:00,41.9,31.8,29.78,SSE,164,0.0,3.0,67,0.00,,---,0.00,VWS V13.01,2013-05-13 07:46:00,
2013-05-13 03:51:00,42.0,31.5,29.78,SE,144,0.0,3.0,66,0.00,,---,0.00,VWS V13.01,2013-05-13 07:51:00,
2013-05-13 03:56:00,42.1,31.6,29.78,SE,138,0.0,0.0,66,0.00,,---,0.00,VWS V13.01,2013-05-13 07:56:00,
2013-05-13 04:01:00,42.2,32.0,29.78,SE,138,0.0,0.0,67,0.00,,---,0.00,VWS V13.01,2013-05-13 08:01:00,
2013-05-13 04:06:00,42.0,32.2,29.78,SE,138,0.0,1.0,68,0.00,,---,0.00,VWS V13.01,2013-05-13 08:06:00,
2013-05-13 04:11:00,41.8,31.7,29.78,SE,138,0.0,1.0,67,0.00,,---,0.00,VWS V13.01,2013-05-13 08:11:00,
2013-05-13 04:16:00,41.6,31.5,29.78,SE,138,0.0,2.0,67,0.00,,---,0.00,VWS V13.01,2013-05-13 08:16:00,
2013-05-13 04:21:00,41.4,31.6,29.78,SE,138,0.0,2.0,68,0.00,,---,0.00,VWS V13.01,2013-05-13 08:21:00,
2013-05-13 04:26:00,41.3,31.5,29.78,SE,138,0.0,0.0,68,0.00,,---,0.00,VWS V13.01,2013-05-13 08:26:00,
2013-05-13 04:31:00,41.3,31.5,29.78,SSE,150,0.0,3.0,68,0.00,,---,0.00,VWS V13.01,2013-05-13 08:31:00,
2013-05-13 04:36:00,41.3,31.9,29.78,SSE,150,0.0,3.0,69,0.00,,---,0.00,VWS V13.01,2013-05-13 08:36:00,
2013-05-13 04:41:00,41.3,31.5,29.78,SSE,149,0.0,3.0,68,0.00,,---,0.00,VWS V13.01,2013-05-13 08:41:00,
2013-05-13 04:46:00,41.3,31.5,29.79,SSE,150,0.0,3.0,68,0.00,,---,0.00,VWS V13.01,2013-05-13 08:46:00,
2013-05-13 04:51:00,41.2,31.1,29.79,SSE,150,0.0,3.0,67,0.00,,---,0.00,VWS V13.01,2013-05-13 08:51:00,
2013-05-13 04:56:00,41.0,31.6,29.79,SSE,150,0.0,0.0,69,0.00,,---,0.00,VWS V13.01,2013-05-13 08:56:00,
2013-05-13 05:01:00,40.8,32.5,29.79,SSE,149,0.0,0.0,72,0.00,,---,0.00,VWS V13.01,2013-05-13 09:01:00,
2013-05-13 05:06:00,40.4,31.8,29.80,SSE,150,0.0,2.0,71,0.00,,---,0.00,VWS V13.01,2013-05-13 09:06:00,
2013-05-13 05:11:00,40.1,31.8,29.80,SSE,150,0.0,2.0,72,0.00,,---,0.00,VWS V13.01,2013-05-13 09:11:00,
2013-05-13 05:16:00,40.0,31.7,29.80,SSE,149,0.0,2.0,72,0.00,,---,0.00,VWS V13.01,2013-05-13 09:16:00,
2013-05-13 05:21:00,39.8,31.5,29.81,SSE,149,0.0,2.0,72,0.00,,---,0.00,VWS V13.01,2013-05-13 09:21:00,
2013-05-13 05:26:00,39.8,31.9,29.81,SSE,150,0.0,1.0,73,0.00,,---,0.00,VWS V13.01,2013-05-13 09:26:00,
2013-05-13 05:31:00,39.6,31.7,29.81,SSE,150,0.0,1.0,73,0.00,,---,0.00,VWS V13.01,2013-05-13 09:31:00,
2013-05-13 05:36:00,39.5,31.9,29.81,SSE,150,0.0,1.0,74,0.00,,---,0.00,VWS V13.01,2013-05-13 09:36:00,
2013-05-13 05:41:00,39.5,31.9,29.81,SSE,149,0.0,2.0,74,0.00,,---,0.00,VWS V13.01,2013-05-13 09:41:00,
2013-05-13 05:46:00,39.4,31.8,29.81,SSE,149,0.0,2.0,74,0.00,,---,0.00,VWS V13.01,2013-05-13 09:46:00,
2013-05-13 05:51:00,39.4,31.8,29.81,SSE,150,0.0,2.0,74,0.00,,---,0.00,VWS V13.01,2013-05-13 09:51:00,
2013-05-13 05:56:00,39.6,32.7,29.81,SSE,150,0.0,0.0,76,0.00,,---,0.00,VWS V13.01,2013-05-13 09:56:00,
2013-05-13 06:01:00,40.2,32.6,29.81,South,173,0.0,5.0,74,0.00,,---,0.00,VWS V13.01,2013-05-13 10:01:00,
2013-05-13 06:06:00,40.8,32.5,29.81,South,178,3.0,5.0,72,0.00,,---,0.00,VWS V13.01,2013-05-13 10:06:00,
2013-05-13 06:11:00,41.3,32.3,29.82,SSE,165,2.0,7.0,70,0.00,,---,0.00,VWS V13.01,2013-05-13 10:11:00,
2013-05-13 06:16:00,41.8,32.4,29.82,SSE,166,0.0,7.0,69,0.00,,---,0.00,VWS V13.01,2013-05-13 10:16:00,
2013-05-13 06:21:00,42.2,32.4,29.82,SSE,155,0.0,7.0,68,0.00,,---,0.00,VWS V13.01,2013-05-13 10:21:00,
2013-05-13 06:26:00,42.7,32.2,29.82,South,173,0.0,6.0,66,0.00,,---,0.00,VWS V13.01,2013-05-13 10:26:00,
2013-05-13 06:31:00,43.2,32.6,29.82,SSE,157,3.0,7.0,66,0.00,,---,0.00,VWS V13.01,2013-05-13 10:31:00,
2013-05-13 06:36:00,43.6,33.0,29.82,East,100,2.0,8.0,66,0.00,,---,0.00,VWS V13.01,2013-05-13 10:36:00,
2013-05-13 06:41:00,44.0,32.6,29.82,SW,231,2.0,8.0,64,0.00,,---,0.00,VWS V13.01,2013-05-13 10:41:00,
2013-05-13 06:46:00,44.3,32.1,29.82,SSW,194,4.0,8.0,62,0.00,,---,0.00,VWS V13.01,2013-05-13 10:46:00,
2013-05-13 06:51:00,44.8,32.2,29.82,SE,134,3.0,8.0,61,0.00,,---,0.00,VWS V13.01,2013-05-13 10:51:00,
2013-05-13 06:56:00,45.2,33.0,29.83,SSE,150,1.0,2.0,62,0.00,,---,0.00,VWS V13.01,2013-05-13 10:56:00,
2013-05-13 07:01:00,45.7,32.2,29.83,South,169,2.0,6.0,59,0.00,,---,0.00,VWS V13.01,2013-05-13 11:01:00,
2013-05-13 07:06:00,46.2,32.7,29.83,North,360,4.0,6.0,59,0.00,,---,0.00,VWS V13.01,2013-05-13 11:06:00,
2013-05-13 07:11:00,46.4,31.6,29.83,South,173,2.0,7.0,56,0.00,,---,0.00,VWS V13.01,2013-05-13 11:11:00,
2013-05-13 07:16:00,46.8,32.0,29.84,NNW,348,2.0,7.0,56,0.00,,---,0.00,VWS V13.01,2013-05-13 11:16:00,
2013-05-13 07:21:00,47.0,33.0,29.83,SE,141,3.0,7.0,58,0.00,,---,0.00,VWS V13.01,2013-05-13 11:21:00,
2013-05-13 07:26:00,47.3,32.0,29.84,ESE,111,2.0,7.0,55,0.00,,---,0.00,VWS V13.01,2013-05-13 11:26:00,
2013-05-13 07:31:00,47.3,32.0,29.84,WNW,284,4.0,11.0,55,0.00,,---,0.00,VWS V13.01,2013-05-13 11:31:00,
2013-05-13 07:36:00,47.2,31.9,29.84,WNW,282,2.0,11.0,55,0.00,,---,0.00,VWS V13.01,2013-05-13 11:36:00,
2013-05-13 07:41:00,47.3,31.0,29.85,South,175,5.0,11.0,53,0.00,,---,0.00,VWS V13.01,2013-05-13 11:41:00,
2013-05-13 07:46:00,47.6,31.8,29.84,South,179,2.0,11.0,54,0.00,,---,0.00,VWS V13.01,2013-05-13 11:46:00,
2013-05-13 07:51:00,47.8,31.0,29.85,NW,325,1.0,12.0,52,0.00,,---,0.00,VWS V13.01,2013-05-13 11:51:00,
2013-05-13 07:56:00,48.0,30.8,29.84,WNW,287,6.0,9.0,51,0.00,,---,0.00,VWS V13.01,2013-05-13 11:56:00,
2013-05-13 08:01:00,48.4,31.1,29.85,ESE,112,4.0,18.0,51,0.00,,---,0.00,VWS V13.01,2013-05-13 12:01:00,
2013-05-13 08:06:00,48.5,30.7,29.85,West,272,2.0,18.0,50,0.00,,---,0.00,VWS V13.01,2013-05-13 12:06:00,
2013-05-13 08:11:00,48.5,30.2,29.86,West,278,5.0,18.0,49,0.00,,---,0.00,VWS V13.01,2013-05-13 12:11:00,
2013-05-13 08:16:00,48.5,30.7,29.86,SW,227,2.0,18.0,50,0.00,,---,0.00,VWS V13.01,2013-05-13 12:16:00,
2013-05-13 08:21:00,48.7,30.4,29.86,WNW,284,2.0,18.0,49,0.00,,---,0.00,VWS V13.01,2013-05-13 12:21:00,
2013-05-13 08:26:00,49.0,30.7,29.86,West,275,6.0,9.0,49,0.00,,---,0.00,VWS V13.01,2013-05-13 12:26:00,
2013-05-13 08:31:00,49.1,30.8,29.86,NNE,32,4.0,16.0,49,0.00,,---,0.00,VWS V13.01,2013-05-13 12:31:00,
2013-05-13 08:36:00,49.2,30.4,29.86,NNW,333,10.0,16.0,48,0.00,,---,0.00,VWS V13.01,2013-05-13 12:36:00,
2013-05-13 08:41:00,49.2,30.9,29.86,WNW,285,4.0,16.0,49,0.00,,---,0.00,VWS V13.01,2013-05-13 12:41:00,
2013-05-13 08:46:00,49.4,31.1,29.86,NW,312,4.0,16.0,49,0.00,,---,0.00,VWS V13.01,2013-05-13 12:46:00,
2013-05-13 08:51:00,49.8,31.4,29.86,WNW,297,7.0,16.0,49,0.00,,---,0.00,VWS V13.01,2013-05-13 12:51:00,
2013-05-13 08:56:00,50.3,30.9,29.86,South,169,3.0,9.0,47,0.00,,---,0.00,VWS V13.01,2013-05-13 12:56:00,
2013-05-13 09:01:00,50.4,31.0,29.86,WNW,291,5.0,12.0,47,0.00,,---,0.00,VWS V13.01,2013-05-13 13:01:00,
2013-05-13 09:06:00,50.6,30.6,29.86,SW,236,6.0,12.0,46,0.00,,---,0.00,VWS V13.01,2013-05-13 13:06:00,
2013-05-13 09:11:00,50.3,31.4,29.86,SSW,207,1.0,14.0,48,0.00,,---,0.00,VWS V13.01,2013-05-13 13:11:00,
2013-05-13 09:16:00,50.3,31.4,29.86,North,355,5.0,14.0,48,0.00,,---,0.00,VWS V13.01,2013-05-13 13:16:00,
2013-05-13 09:21:00,50.6,31.1,29.86,South,169,1.0,14.0,47,0.00,,---,0.00,VWS V13.01,2013-05-13 13:21:00,
2013-05-13 09:26:00,50.6,30.6,29.86,West,267,7.0,10.0,46,0.00,,---,0.00,VWS V13.01,2013-05-13 13:26:00,
2013-05-13 09:31:00,50.5,30.0,29.86,SE,144,10.0,14.0,45,0.00,,---,0.00,VWS V13.01,2013-05-13 13:31:00,
2013-05-13 09:36:00,50.8,30.8,29.87,SE,137,7.0,14.0,46,0.00,,---,0.00,VWS V13.01,2013-05-13 13:36:00,
2013-05-13 09:41:00,50.9,30.9,29.86,SE,140,3.0,14.0,46,0.00,,---,0.00,VWS V13.01,2013-05-13 13:41:00,
2013-05-13 09:46:00,51.2,31.1,29.86,South,178,4.0,14.0,46,0.00,,---,0.00,VWS V13.01,2013-05-13 13:46:00,
2013-05-13 09:51:00,51.1,30.5,29.87,SSW,213,6.0,19.0,45,0.00,,---,0.00,VWS V13.01,2013-05-13 13:51:00,
2013-05-13 09:56:00,50.9,31.4,29.87,West,264,4.0,12.0,47,0.00,,---,0.00,VWS V13.01,2013-05-13 13:56:00,
2013-05-13 10:01:00,51.6,31.5,29.87,NNE,21,2.0,17.0,46,0.00,,---,0.00,VWS V13.01,2013-05-13 14:01:00,
2013-05-13 10:06:00,51.9,30.7,29.87,NE,37,1.0,17.0,44,0.00,,---,0.00,VWS V13.01,2013-05-13 14:06:00,
2013-05-13 10:11:00,52.4,31.1,29.87,WNW,294,2.0,17.0,44,0.00,,---,0.00,VWS V13.01,2013-05-13 14:11:00,
2013-05-13 10:16:00,52.1,30.3,29.87,South,186,2.0,17.0,43,0.00,,---,0.00,VWS V13.01,2013-05-13 14:16:00,
2013-05-13 10:21:00,52.2,31.0,29.87,SE,132,6.0,17.0,44,0.00,,---,0.00,VWS V13.01,2013-05-13 14:21:00,
2013-05-13 10:26:00,51.8,30.6,29.87,South,169,3.0,7.0,44,0.00,,---,0.00,VWS V13.01,2013-05-13 14:26:00,
2013-05-13 10:31:00,51.9,30.7,29.87,WNW,299,2.0,10.0,44,0.00,,---,0.00,VWS V13.01,2013-05-13 14:31:00,
2013-05-13 10:36:00,52.5,31.2,29.87,ESE,103,7.0,11.0,44,0.00,,---,0.00,VWS V13.01,2013-05-13 14:36:00,
2013-05-13 10:41:00,52.5,30.7,29.88,WSW,240,3.0,13.0,43,0.00,,---,0.00,VWS V13.01,2013-05-13 14:41:00,
2013-05-13 10:46:00,52.3,30.5,29.87,South,184,4.0,14.0,43,0.00,,---,0.00,VWS V13.01,2013-05-13 14:46:00,
2013-05-13 10:51:00,52.6,30.8,29.88,NE,56,5.0,16.0,43,0.00,,---,0.00,VWS V13.01,2013-05-13 14:51:00,
2013-05-13 10:56:00,52.7,31.4,29.88,WSW,252,4.0,5.0,44,0.00,,---,0.00,VWS V13.01,2013-05-13 14:56:00,
2013-05-13 11:01:00,52.5,30.1,29.88,West,264,14.0,14.0,42,0.00,,---,0.00,VWS V13.01,2013-05-13 15:01:00,
2013-05-13 11:06:00,52.3,31.0,29.88,WNW,293,12.0,16.0,44,0.00,,---,0.00,VWS V13.01,2013-05-13 15:06:00,
2013-05-13 11:11:00,52.6,30.8,29.88,WSW,244,6.0,16.0,43,0.00,,---,0.00,VWS V13.01,2013-05-13 15:11:00,
2013-05-13 11:16:00,53.0,30.5,29.88,WSW,253,5.0,16.0,42,0.00,,---,0.00,VWS V13.01,2013-05-13 15:16:00,
2013-05-13 11:21:00,53.2,31.3,29.88,SSE,148,3.0,16.0,43,0.00,,---,0.00,VWS V13.01,2013-05-13 15:21:00,
2013-05-13 11:26:00,53.5,31.6,29.88,West,261,1.0,14.0,43,0.00,,---,0.00,VWS V13.01,2013-05-13 15:26:00,
2013-05-13 11:31:00,53.5,31.0,29.89,NNW,337,2.0,14.0,42,0.00,,---,0.00,VWS V13.01,2013-05-13 15:31:00,
2013-05-13 11:36:00,53.9,31.9,29.88,South,184,1.0,14.0,43,0.00,,---,0.00,VWS V13.01,2013-05-13 15:36:00,
2013-05-13 11:41:00,54.3,31.1,29.89,SSE,148,6.0,14.0,41,0.00,,---,0.00,VWS V13.01,2013-05-13 15:41:00,
2013-05-13 11:46:00,54.1,31.5,29.88,ESE,117,1.0,14.0,42,0.00,,---,0.00,VWS V13.01,2013-05-13 15:46:00,
2013-05-13 11:51:00,54.5,31.9,29.89,NW,304,4.0,14.0,42,0.00,,---,0.00,VWS V13.01,2013-05-13 15:51:00,
2013-05-13 11:56:00,54.5,32.5,29.89,WNW,286,7.0,7.0,43,0.00,,---,0.00,VWS V13.01,2013-05-13 15:56:00,
2013-05-13 12:01:00,55.1,31.8,29.89,SW,236,2.0,10.0,41,0.00,,---,0.00,VWS V13.01,2013-05-13 16:01:00,
2013-05-13 12:06:00,55.0,31.8,29.89,WSW,243,3.0,12.0,41,0.00,,---,0.00,VWS V13.01,2013-05-13 16:06:00,
2013-05-13 12:11:00,55.1,31.8,29.88,NNW,332,2.0,14.0,41,0.00,,---,0.00,VWS V13.01,2013-05-13 16:11:00,
2013-05-13 12:16:00,54.9,31.0,29.89,NNE,15,4.0,19.0,40,0.00,,---,0.00,VWS V13.01,2013-05-13 16:16:00,
2013-05-13 12:21:00,55.2,31.3,29.88,East,90,10.0,19.0,40,0.00,,---,0.00,VWS V13.01,2013-05-13 16:21:00,
2013-05-13 12:26:00,55.6,31.7,29.88,SE,132,6.0,10.0,40,0.00,,---,0.00,VWS V13.01,2013-05-13 16:26:00,
2013-05-13 12:31:00,55.7,32.4,29.88,West,276,6.0,10.0,41,0.00,,---,0.00,VWS V13.01,2013-05-13 16:31:00,
2013-05-13 12:36:00,55.8,31.9,29.89,WNW,303,15.0,15.0,40,0.00,,---,0.00,VWS V13.01,2013-05-13 16:36:00,
2013-05-13 12:41:00,55.6,32.9,29.88,North,355,3.0,15.0,42,0.00,,---,0.00,VWS V13.01,2013-05-13 16:41:00,
2013-05-13 12:46:00,55.4,32.1,29.88,East,97,2.0,16.0,41,0.00,,---,0.00,VWS V13.01,2013-05-13 16:46:00,
2013-05-13 12:51:00,55.6,32.9,29.89,WNW,290,5.0,16.0,42,0.00,,---,0.00,VWS V13.01,2013-05-13 16:51:00,
2013-05-13 12:56:00,55.8,30.6,29.89,NW,317,4.0,16.0,38,0.00,,---,0.00,VWS V13.01,2013-05-13 16:56:00,
2013-05-13 13:01:00,55.7,31.1,29.89,WNW,298,3.0,16.0,39,0.00,,---,0.00,VWS V13.01,2013-05-13 17:01:00,
2013-05-13 13:06:00,55.7,32.4,29.89,ENE,61,4.0,16.0,41,0.00,,---,0.00,VWS V13.01,2013-05-13 17:06:00,
2013-05-13 13:11:00,55.9,31.3,29.89,SE,126,3.0,16.0,39,0.00,,---,0.00,VWS V13.01,2013-05-13 17:11:00,
2013-05-13 13:16:00,55.9,30.7,29.89,WSW,246,3.0,16.0,38,0.00,,---,0.00,VWS V13.01,2013-05-13 17:16:00,
2013-05-13 13:21:00,55.9,32.6,29.89,WSW,241,4.0,16.0,41,0.00,,---,0.00,VWS V13.01,2013-05-13 17:21:00,
2013-05-13 13:26:00,56.5,33.7,29.89,SSE,154,6.0,12.0,42,0.00,,---,0.00,VWS V13.01,2013-05-13 17:26:00,
2013-05-13 13:31:00,57.1,32.4,29.89,West,268,6.0,12.0,39,0.00,,---,0.00,VWS V13.01,2013-05-13 17:31:00,
2013-05-13 13:36:00,57.0,33.5,29.89,SSW,196,4.0,16.0,41,0.00,,---,0.00,VWS V13.01,2013-05-13 17:36:00,
2013-05-13 13:41:00,56.7,32.7,29.89,West,276,0.0,16.0,40,0.00,,---,0.00,VWS V13.01,2013-05-13 17:41:00,
2013-05-13 13:46:00,56.8,33.4,29.89,West,269,4.0,16.0,41,0.00,,---,0.00,VWS V13.01,2013-05-13 17:46:00,
2013-05-13 13:51:00,56.6,32.6,29.89,WNW,283,2.0,16.0,40,0.00,,---,0.00,VWS V13.01,2013-05-13 17:51:00,
2013-05-13 13:56:00,56.3,32.3,29.90,WNW,303,3.0,16.0,40,0.00,,---,0.00,VWS V13.01,2013-05-13 17:56:00,
2013-05-13 14:01:00,56.2,31.6,29.90,NE,44,6.0,16.0,39,0.00,,---,0.00,VWS V13.01,2013-05-13 18:01:00,
2013-05-13 14:06:00,56.3,31.7,29.89,SSE,149,3.0,23.0,39,0.00,,---,0.00,VWS V13.01,2013-05-13 18:06:00,
2013-05-13 14:11:00,56.5,32.5,29.89,SE,134,3.0,23.0,40,0.00,,---,0.00,VWS V13.01,2013-05-13 18:11:00,
2013-05-13 14:16:00,57.1,32.4,29.90,SSE,160,3.0,23.0,39,0.00,,---,0.00,VWS V13.01,2013-05-13 18:16:00,
2013-05-13 14:21:00,57.1,32.4,29.90,NW,318,0.0,23.0,39,0.00,,---,0.00,VWS V13.01,2013-05-13 18:21:00,
2013-05-13 14:26:00,56.9,31.6,29.90,SE,146,11.0,14.0,38,0.00,,---,0.00,VWS V13.01,2013-05-13 18:26:00,
2013-05-13 14:31:00,57.0,32.9,29.90,WNW,288,3.0,14.0,40,0.00,,---,0.00,VWS V13.01,2013-05-13 18:31:00,
2013-05-13 14:36:00,57.0,31.7,29.90,NW,306,3.0,14.0,38,0.00,,---,0.00,VWS V13.01,2013-05-13 18:36:00,
2013-05-13 14:41:00,56.8,32.8,29.90,WSW,237,2.0,14.0,40,0.00,,---,0.00,VWS V13.01,2013-05-13 18:41:00,
2013-05-13 14:46:00,56.7,32.7,29.90,NNE,13,2.0,14.0,40,0.00,,---,0.00,VWS V13.01,2013-05-13 18:46:00,
2013-05-13 14:51:00,56.3,31.7,29.90,West,273,6.0,14.0,39,0.00,,---,0.00,VWS V13.01,2013-05-13 18:51:00,
2013-05-13 14:56:00,56.1,30.9,29.89,ESE,104,9.0,9.0,38,0.00,,---,0.00,VWS V13.01,2013-05-13 18:56:00,
2013-05-13 15:02:00,56.2,31.6,29.89,SE,128,1.0,9.0,39,0.00,,---,0.00,VWS V13.01,2013-05-13 19:02:00,
2013-05-13 15:08:00,57.0,31.7,29.89,SSE,164,4.0,11.0,38,0.00,,---,0.00,VWS V13.01,2013-05-13 19:08:00,
2013-05-13 15:13:00,57.2,31.2,29.89,SSW,194,1.0,11.0,37,0.00,,---,0.00,VWS V13.01,2013-05-13 19:13:00,
2013-05-13 15:18:00,56.8,32.8,29.89,SE,138,2.0,11.0,40,0.00,,---,0.00,VWS V13.01,2013-05-13 19:18:00,
2013-05-13 15:23:00,56.4,30.5,29.89,North,360,2.0,13.0,37,0.00,,---,0.00,VWS V13.01,2013-05-13 19:23:00,
2013-05-13 15:28:00,56.2,31.6,29.89,SE,142,6.0,7.0,39,0.00,,---,0.00,VWS V13.01,2013-05-13 19:28:00,
2013-05-13 15:33:00,56.3,31.7,29.89,WSW,242,7.0,11.0,39,0.00,,---,0.00,VWS V13.01,2013-05-13 19:33:00,